sensor_id;sensor_type;location;lat;lon;timestamp;temperature;humidity
9371;DHT22;4725;48.384;8.984;2023-01-30T00:01:38;-4.80;99.90
9371;DHT22;4725;48.384;8.984;2023-01-30T00:04:05;-4.80;99.90
9371;DHT22;4725;48.384;8.984;2023-01-30T00:06:32;-4.90;99.90
9371;DHT22;4725;48.384;8.984;2023-01-30T00:18:50;-5.00;99.90
9371;DHT22;4725;48.384;8.984;2023-01-30T00:21:18;-5.00;99.90
9371;DHT22;4725;48.384;8.984;2023-01-30T00:23:45;-5.10;99.90
9371;DHT22;4725;48.384;8.984;2023-01-30T00:28:40;-5.20;99.90
9371;DHT22;4725;48.384;8.984;2023-01-30T00:31:07;-5.30;99.90
9371;DHT22;4725;48.384;8.984;2023-01-30T00:33:35;-5.20;99.90
9371;DHT22;4725;48.384;8.984;2023-01-30T00:36:05;-5.10;99.90
9371;DHT22;4725;48.384;8.984;2023-01-30T00:38:32;-5.10;99.90
9371;DHT22;4725;48.384;8.984;2023-01-30T00:40:59;-5.10;99.90
9371;DHT22;4725;48.384;8.984;2023-01-30T00:46:14;-5.10;99.90
9371;DHT22;4725;48.384;8.984;2023-01-30T00:51:28;-5.00;99.90
9371;DHT22;4725;48.384;8.984;2023-01-30T00:53:55;-5.00;99.90
9371;DHT22;4725;48.384;8.984;2023-01-30T00:58:49;-4.90;99.90
9371;DHT22;4725;48.384;8.984;2023-01-30T01:03:43;-4.80;99.90
9371;DHT22;4725;48.384;8.984;2023-01-30T01:08:38;-5.00;99.90
9371;DHT22;4725;48.384;8.984;2023-01-30T01:11:05;-5.20;99.90
9371;DHT22;4725;48.384;8.984;2023-01-30T01:18:27;-5.60;99.90
9371;DHT22;4725;48.384;8.984;2023-01-30T01:23:21;-5.80;99.90
9371;DHT22;4725;48.384;8.984;2023-01-30T01:25:49;-6.00;99.90
9371;DHT22;4725;48.384;8.984;2023-01-30T01:30:46;-6.00;99.90
9371;DHT22;4725;48.384;8.984;2023-01-30T01:33:13;-6.00;99.90
9371;DHT22;4725;48.384;8.984;2023-01-30T01:43:23;-5.80;99.90
9371;DHT22;4725;48.384;8.984;2023-01-30T01:45:54;-5.80;99.90
9371;DHT22;4725;48.384;8.984;2023-01-30T01:48:26;-5.80;99.90
9371;DHT22;4725;48.384;8.984;2023-01-30T01:50:56;-5.90;99.90
9371;DHT22;4725;48.384;8.984;2023-01-30T01:53:28;-6.10;99.90
9371;DHT22;4725;48.384;8.984;2023-01-30T01:55:57;-6.10;99.90
9371;DHT22;4725;48.384;8.984;2023-01-30T01:58:28;-6.20;99.90
9371;DHT22;4725;48.384;8.984;2023-01-30T02:00:57;-6.10;99.90
9371;DHT22;4725;48.384;8.984;2023-01-30T02:03:29;-6.20;99.90
9371;DHT22;4725;48.384;8.984;2023-01-30T02:06:00;-6.10;99.90
9371;DHT22;4725;48.384;8.984;2023-01-30T02:08:31;-6.00;99.90
9371;DHT22;4725;48.384;8.984;2023-01-30T02:11:04;-5.80;99.90
9371;DHT22;4725;48.384;8.984;2023-01-30T02:13:35;-5.90;99.90
9371;DHT22;4725;48.384;8.984;2023-01-30T02:16:04;-6.00;99.90
9371;DHT22;4725;48.384;8.984;2023-01-30T02:18:33;-6.10;99.90
9371;DHT22;4725;48.384;8.984;2023-01-30T02:21:11;-5.90;99.90
9371;DHT22;4725;48.384;8.984;2023-01-30T02:24:03;-8.30;99.90
9371;DHT22;4725;48.384;8.984;2023-01-30T02:26:47;-5.60;99.90
9371;DHT22;4725;48.384;8.984;2023-01-30T02:29:49;-5.60;99.90
9371;DHT22;4725;48.384;8.984;2023-01-30T02:32:29;-5.50;99.90
9371;DHT22;4725;48.384;8.984;2023-01-30T02:35:06;-5.50;99.90
9371;DHT22;4725;48.384;8.984;2023-01-30T02:37:46;-5.50;99.90
9371;DHT22;4725;48.384;8.984;2023-01-30T02:40:24;-4.80;99.90
9371;DHT22;4725;48.384;8.984;2023-01-30T02:43:00;-4.60;99.90
9371;DHT22;4725;48.384;8.984;2023-01-30T02:45:35;-4.60;99.90
9371;DHT22;4725;48.384;8.984;2023-01-30T02:48:06;-4.60;99.90
9371;DHT22;4725;48.384;8.984;2023-01-30T02:50:38;-4.60;99.90
9371;DHT22;4725;48.384;8.984;2023-01-30T02:55:33;-4.70;99.90
9371;DHT22;4725;48.384;8.984;2023-01-30T02:58:02;-4.80;99.90
9371;DHT22;4725;48.384;8.984;2023-01-30T03:00:47;-4.80;99.90
9371;DHT22;4725;48.384;8.984;2023-01-30T03:03:40;-4.80;99.90
9371;DHT22;4725;48.384;8.984;2023-01-30T03:06:31;-4.70;99.90
9371;DHT22;4725;48.384;8.984;2023-01-30T03:09:07;-4.80;99.90
9371;DHT22;4725;48.384;8.984;2023-01-30T03:11:45;-4.90;99.90
9371;DHT22;4725;48.384;8.984;2023-01-30T03:14:18;-5.00;99.90
9371;DHT22;4725;48.384;8.984;2023-01-30T03:16:47;-5.10;99.90
9371;DHT22;4725;48.384;8.984;2023-01-30T03:19:18;-5.10;99.90
9371;DHT22;4725;48.384;8.984;2023-01-30T03:26:43;-4.80;99.90
9371;DHT22;4725;48.384;8.984;2023-01-30T03:29:12;-4.60;99.90
9371;DHT22;4725;48.384;8.984;2023-01-30T03:31:39;-4.40;99.90
9371;DHT22;4725;48.384;8.984;2023-01-30T03:34:07;-4.10;99.90
9371;DHT22;4725;48.384;8.984;2023-01-30T03:36:35;-3.90;99.90
9371;DHT22;4725;48.384;8.984;2023-01-30T03:39:02;-3.70;99.90
9371;DHT22;4725;48.384;8.984;2023-01-30T03:41:29;-3.70;99.90
9371;DHT22;4725;48.384;8.984;2023-01-30T03:43:56;-3.70;99.90
9371;DHT22;4725;48.384;8.984;2023-01-30T03:48:50;-3.80;99.90
9371;DHT22;4725;48.384;8.984;2023-01-30T03:53:46;-3.60;99.90
9371;DHT22;4725;48.384;8.984;2023-01-30T03:56:13;-3.50;99.90
9371;DHT22;4725;48.384;8.984;2023-01-30T04:03:34;-3.40;99.90
9371;DHT22;4725;48.384;8.984;2023-01-30T04:10:57;-3.30;99.90
9371;DHT22;4725;48.384;8.984;2023-01-30T04:18:18;-3.40;99.90
9371;DHT22;4725;48.384;8.984;2023-01-30T04:20:45;-3.40;99.90
9371;DHT22;4725;48.384;8.984;2023-01-30T04:28:07;-3.60;99.90
9371;DHT22;4725;48.384;8.984;2023-01-30T04:30:34;-3.70;99.90
9371;DHT22;4725;48.384;8.984;2023-01-30T04:33:01;-3.80;99.90
9371;DHT22;4725;48.384;8.984;2023-01-30T04:35:28;-3.80;99.90
9371;DHT22;4725;48.384;8.984;2023-01-30T04:37:55;-3.80;99.90
9371;DHT22;4725;48.384;8.984;2023-01-30T04:40:22;-3.90;99.90
9371;DHT22;4725;48.384;8.984;2023-01-30T04:42:49;-3.90;99.90
9371;DHT22;4725;48.384;8.984;2023-01-30T04:45:17;-3.90;99.90
9371;DHT22;4725;48.384;8.984;2023-01-30T04:47:44;-4.00;99.90
9371;DHT22;4725;48.384;8.984;2023-01-30T04:50:11;-4.00;99.90
9371;DHT22;4725;48.384;8.984;2023-01-30T04:52:38;-3.90;99.90
9371;DHT22;4725;48.384;8.984;2023-01-30T04:55:05;-3.90;99.90
9371;DHT22;4725;48.384;8.984;2023-01-30T04:57:32;-3.90;99.90
9371;DHT22;4725;48.384;8.984;2023-01-30T05:02:27;-3.90;99.90
9371;DHT22;4725;48.384;8.984;2023-01-30T05:09:49;-3.80;99.90
9371;DHT22;4725;48.384;8.984;2023-01-30T05:12:16;-3.80;99.90
9371;DHT22;4725;48.384;8.984;2023-01-30T05:17:11;-3.90;99.90
9371;DHT22;4725;48.384;8.984;2023-01-30T05:19:39;-4.00;99.90
9371;DHT22;4725;48.384;8.984;2023-01-30T05:22:06;-3.90;99.90
9371;DHT22;4725;48.384;8.984;2023-01-30T05:24:33;-3.90;99.90
9371;DHT22;4725;48.384;8.984;2023-01-30T05:27:01;-3.90;99.90
9371;DHT22;4725;48.384;8.984;2023-01-30T05:29:28;-3.70;99.90
9371;DHT22;4725;48.384;8.984;2023-01-30T05:31:55;-3.60;99.90
9371;DHT22;4725;48.384;8.984;2023-01-30T05:34:21;-3.50;99.90
9371;DHT22;4725;48.384;8.984;2023-01-30T05:36:50;-3.30;99.90
9371;DHT22;4725;48.384;8.984;2023-01-30T05:46:38;-3.30;99.90
9371;DHT22;4725;48.384;8.984;2023-01-30T05:51:33;-3.30;99.90
9371;DHT22;4725;48.384;8.984;2023-01-30T05:54:01;-3.40;99.90
9371;DHT22;4725;48.384;8.984;2023-01-30T05:56:28;-3.40;99.90
9371;DHT22;4725;48.384;8.984;2023-01-30T05:58:58;-3.40;99.90
9371;DHT22;4725;48.384;8.984;2023-01-30T06:01:27;-3.40;99.90
9371;DHT22;4725;48.384;8.984;2023-01-30T06:03:55;-3.40;99.90
9371;DHT22;4725;48.384;8.984;2023-01-30T06:06:22;-3.40;99.90
9371;DHT22;4725;48.384;8.984;2023-01-30T06:08:52;-3.40;99.90
9371;DHT22;4725;48.384;8.984;2023-01-30T06:11:21;-3.30;99.90
9371;DHT22;4725;48.384;8.984;2023-01-30T06:13:49;-3.30;99.90
9371;DHT22;4725;48.384;8.984;2023-01-30T06:16:16;-3.40;99.90
9371;DHT22;4725;48.384;8.984;2023-01-30T06:18:44;-3.50;99.90
9371;DHT22;4725;48.384;8.984;2023-01-30T06:21:11;-3.50;99.90
9371;DHT22;4725;48.384;8.984;2023-01-30T06:23:39;-3.40;99.90
9371;DHT22;4725;48.384;8.984;2023-01-30T06:26:06;-3.40;99.90
9371;DHT22;4725;48.384;8.984;2023-01-30T06:28:35;-3.30;99.90
9371;DHT22;4725;48.384;8.984;2023-01-30T06:33:29;-3.10;99.90
9371;DHT22;4725;48.384;8.984;2023-01-30T06:40:50;-3.20;99.90
9371;DHT22;4725;48.384;8.984;2023-01-30T06:45:46;-2.90;99.90
9371;DHT22;4725;48.384;8.984;2023-01-30T06:53:07;-2.60;99.90
9371;DHT22;4725;48.384;8.984;2023-01-30T06:55:35;-2.60;99.90
9371;DHT22;4725;48.384;8.984;2023-01-30T06:58:04;-2.60;99.90
9371;DHT22;4725;48.384;8.984;2023-01-30T07:00:31;-2.50;99.90
9371;DHT22;4725;48.384;8.984;2023-01-30T07:03:00;-2.50;99.90
9371;DHT22;4725;48.384;8.984;2023-01-30T07:05:27;-2.40;99.90
9371;DHT22;4725;48.384;8.984;2023-01-30T07:07:54;-2.10;99.90
9371;DHT22;4725;48.384;8.984;2023-01-30T07:10:22;-1.70;99.90
9371;DHT22;4725;48.384;8.984;2023-01-30T07:12:51;-1.40;99.90
9371;DHT22;4725;48.384;8.984;2023-01-30T07:15:18;-1.40;99.90
9371;DHT22;4725;48.384;8.984;2023-01-30T07:17:44;-1.30;99.90
9371;DHT22;4725;48.384;8.984;2023-01-30T07:20:13;-1.30;99.90
9371;DHT22;4725;48.384;8.984;2023-01-30T07:22:40;-1.20;99.90
9371;DHT22;4725;48.384;8.984;2023-01-30T07:25:07;-1.10;99.90
9371;DHT22;4725;48.384;8.984;2023-01-30T07:27:35;-1.00;99.90
9371;DHT22;4725;48.384;8.984;2023-01-30T07:30:03;-1.10;99.90
9371;DHT22;4725;48.384;8.984;2023-01-30T07:32:30;-1.10;99.90
9371;DHT22;4725;48.384;8.984;2023-01-30T07:34:58;-1.10;99.90
9371;DHT22;4725;48.384;8.984;2023-01-30T07:37:27;-1.10;99.90
9371;DHT22;4725;48.384;8.984;2023-01-30T07:39:54;-0.90;99.90
9371;DHT22;4725;48.384;8.984;2023-01-30T07:42:21;-0.80;99.90
9371;DHT22;4725;48.384;8.984;2023-01-30T07:44:49;-0.80;99.90
9371;DHT22;4725;48.384;8.984;2023-01-30T07:47:16;-0.80;99.90
9371;DHT22;4725;48.384;8.984;2023-01-30T07:49:44;-1.00;99.90
9371;DHT22;4725;48.384;8.984;2023-01-30T07:52:11;-1.10;99.90
9371;DHT22;4725;48.384;8.984;2023-01-30T07:54:39;-1.00;99.90
9371;DHT22;4725;48.384;8.984;2023-01-30T07:57:06;-1.00;99.90
9371;DHT22;4725;48.384;8.984;2023-01-30T07:59:33;-0.90;99.90
9371;DHT22;4725;48.384;8.984;2023-01-30T08:02:00;-0.80;99.90
9371;DHT22;4725;48.384;8.984;2023-01-30T08:04:27;-0.70;99.90
9371;DHT22;4725;48.384;8.984;2023-01-30T08:06:54;-0.60;99.90
9371;DHT22;4725;48.384;8.984;2023-01-30T08:09:21;-0.50;99.90
9371;DHT22;4725;48.384;8.984;2023-01-30T08:11:49;-0.40;99.90
9371;DHT22;4725;48.384;8.984;2023-01-30T08:14:16;-0.40;99.90
9371;DHT22;4725;48.384;8.984;2023-01-30T08:16:43;-0.30;99.90
9371;DHT22;4725;48.384;8.984;2023-01-30T08:19:10;-0.30;99.90
9371;DHT22;4725;48.384;8.984;2023-01-30T08:21:37;-0.30;99.90
9371;DHT22;4725;48.384;8.984;2023-01-30T08:24:07;-0.20;99.90
9371;DHT22;4725;48.384;8.984;2023-01-30T08:26:34;-0.20;99.90
9371;DHT22;4725;48.384;8.984;2023-01-30T08:29:02;-0.10;99.90
9371;DHT22;4725;48.384;8.984;2023-01-30T08:31:30;0.10;99.90
9371;DHT22;4725;48.384;8.984;2023-01-30T08:33:56;0.20;99.90
9371;DHT22;4725;48.384;8.984;2023-01-30T08:36:23;0.30;99.90
9371;DHT22;4725;48.384;8.984;2023-01-30T08:38:51;0.40;99.90
9371;DHT22;4725;48.384;8.984;2023-01-30T08:41:19;0.50;99.90
9371;DHT22;4725;48.384;8.984;2023-01-30T08:43:46;0.60;99.90
9371;DHT22;4725;48.384;8.984;2023-01-30T08:46:14;0.70;99.90
9371;DHT22;4725;48.384;8.984;2023-01-30T08:48:41;0.80;99.90
9371;DHT22;4725;48.384;8.984;2023-01-30T08:51:09;0.80;99.90
9371;DHT22;4725;48.384;8.984;2023-01-30T08:53:36;0.80;99.90
9371;DHT22;4725;48.384;8.984;2023-01-30T08:56:03;0.80;99.90
9371;DHT22;4725;48.384;8.984;2023-01-30T08:58:30;0.70;99.90
9371;DHT22;4725;48.384;8.984;2023-01-30T09:00:57;0.70;99.90
9371;DHT22;4725;48.384;8.984;2023-01-30T09:03:25;0.70;99.90
9371;DHT22;4725;48.384;8.984;2023-01-30T09:05:53;0.60;99.90
9371;DHT22;4725;48.384;8.984;2023-01-30T09:08:21;0.60;99.90
9371;DHT22;4725;48.384;8.984;2023-01-30T09:10:48;0.60;99.90
9371;DHT22;4725;48.384;8.984;2023-01-30T09:13:15;0.60;99.90
9371;DHT22;4725;48.384;8.984;2023-01-30T09:15:43;0.40;99.90
9371;DHT22;4725;48.384;8.984;2023-01-30T09:18:09;0.30;99.90
9371;DHT22;4725;48.384;8.984;2023-01-30T09:20:38;0.30;99.90
9371;DHT22;4725;48.384;8.984;2023-01-30T09:23:05;0.30;99.90
9371;DHT22;4725;48.384;8.984;2023-01-30T09:25:32;0.40;99.90
9371;DHT22;4725;48.384;8.984;2023-01-30T09:27:59;0.40;99.90
9371;DHT22;4725;48.384;8.984;2023-01-30T09:30:26;0.40;99.90
9371;DHT22;4725;48.384;8.984;2023-01-30T09:32:52;0.40;99.90
9371;DHT22;4725;48.384;8.984;2023-01-30T09:35:19;0.60;99.90
9371;DHT22;4725;48.384;8.984;2023-01-30T09:37:48;0.70;99.90
9371;DHT22;4725;48.384;8.984;2023-01-30T09:40:17;0.70;99.90
9371;DHT22;4725;48.384;8.984;2023-01-30T09:43:05;0.90;99.90
9371;DHT22;4725;48.384;8.984;2023-01-30T09:46:02;0.90;99.90
9371;DHT22;4725;48.384;8.984;2023-01-30T09:48:35;1.00;99.90
9371;DHT22;4725;48.384;8.984;2023-01-30T09:54:19;1.10;99.90
9371;DHT22;4725;48.384;8.984;2023-01-30T09:56:56;1.10;99.90
9371;DHT22;4725;48.384;8.984;2023-01-30T09:59:29;1.10;99.90
9371;DHT22;4725;48.384;8.984;2023-01-30T10:02:05;1.20;99.90
9371;DHT22;4725;48.384;8.984;2023-01-30T10:04:41;1.20;99.90
9371;DHT22;4725;48.384;8.984;2023-01-30T10:07:15;1.20;99.90
9371;DHT22;4725;48.384;8.984;2023-01-30T10:09:51;1.40;99.90
9371;DHT22;4725;48.384;8.984;2023-01-30T10:12:32;1.90;99.90
9371;DHT22;4725;48.384;8.984;2023-01-30T10:15:24;2.00;99.90
9371;DHT22;4725;48.384;8.984;2023-01-30T10:18:06;2.30;99.90
9371;DHT22;4725;48.384;8.984;2023-01-30T10:20:42;2.10;99.90
9371;DHT22;4725;48.384;8.984;2023-01-30T10:23:33;2.10;99.90
9371;DHT22;4725;48.384;8.984;2023-01-30T10:26:09;2.10;99.90
9371;DHT22;4725;48.384;8.984;2023-01-30T10:28:39;2.00;99.90
9371;DHT22;4725;48.384;8.984;2023-01-30T10:31:11;2.10;99.90
9371;DHT22;4725;48.384;8.984;2023-01-30T10:33:43;2.00;99.90
9371;DHT22;4725;48.384;8.984;2023-01-30T10:36:13;2.00;99.90
9371;DHT22;4725;48.384;8.984;2023-01-30T10:38:45;2.10;99.90
9371;DHT22;4725;48.384;8.984;2023-01-30T10:41:20;2.00;99.90
9371;DHT22;4725;48.384;8.984;2023-01-30T10:43:57;2.00;99.90
9371;DHT22;4725;48.384;8.984;2023-01-30T10:46:39;2.10;99.90
9371;DHT22;4725;48.384;8.984;2023-01-30T10:49:14;2.20;99.90
9371;DHT22;4725;48.384;8.984;2023-01-30T10:51:49;2.60;99.90
9371;DHT22;4725;48.384;8.984;2023-01-30T10:54:22;2.80;99.90
9371;DHT22;4725;48.384;8.984;2023-01-30T10:56:58;2.80;99.90
9371;DHT22;4725;48.384;8.984;2023-01-30T10:59:35;3.20;99.90
9371;DHT22;4725;48.384;8.984;2023-01-30T11:02:18;4.00;99.90
9371;DHT22;4725;48.384;8.984;2023-01-30T11:04:54;4.20;99.90
9371;DHT22;4725;48.384;8.984;2023-01-30T11:07:22;3.90;99.90
9371;DHT22;4725;48.384;8.984;2023-01-30T11:09:49;3.70;99.90
9371;DHT22;4725;48.384;8.984;2023-01-30T11:12:17;3.90;99.90
9371;DHT22;4725;48.384;8.984;2023-01-30T11:14:52;3.70;99.90
9371;DHT22;4725;48.384;8.984;2023-01-30T11:17:28;3.20;99.90
9371;DHT22;4725;48.384;8.984;2023-01-30T11:19:56;3.10;99.90
9371;DHT22;4725;48.384;8.984;2023-01-30T11:22:27;3.00;99.90
9371;DHT22;4725;48.384;8.984;2023-01-30T11:25:05;3.10;99.90
9371;DHT22;4725;48.384;8.984;2023-01-30T11:27:34;3.10;99.90
9371;DHT22;4725;48.384;8.984;2023-01-30T11:32:41;3.10;99.90
9371;DHT22;4725;48.384;8.984;2023-01-30T11:35:23;3.20;99.90
9371;DHT22;4725;48.384;8.984;2023-01-30T11:37:51;3.20;99.90
9371;DHT22;4725;48.384;8.984;2023-01-30T11:40:25;3.10;99.90
9371;DHT22;4725;48.384;8.984;2023-01-30T11:43:00;3.10;99.90
9371;DHT22;4725;48.384;8.984;2023-01-30T11:45:33;3.20;99.90
9371;DHT22;4725;48.384;8.984;2023-01-30T11:48:03;3.30;99.90
9371;DHT22;4725;48.384;8.984;2023-01-30T11:50:36;3.20;99.90
9371;DHT22;4725;48.384;8.984;2023-01-30T11:53:24;3.20;99.90
9371;DHT22;4725;48.384;8.984;2023-01-30T11:55:56;3.20;99.90
9371;DHT22;4725;48.384;8.984;2023-01-30T11:58:29;3.20;99.90
9371;DHT22;4725;48.384;8.984;2023-01-30T12:00:57;3.30;99.90
9371;DHT22;4725;48.384;8.984;2023-01-30T12:03:25;3.20;99.90
9371;DHT22;4725;48.384;8.984;2023-01-30T12:05:54;3.40;99.90
9371;DHT22;4725;48.384;8.984;2023-01-30T12:08:25;3.30;99.90
9371;DHT22;4725;48.384;8.984;2023-01-30T12:10:54;3.30;99.90
9371;DHT22;4725;48.384;8.984;2023-01-30T12:13:29;3.30;99.90
9371;DHT22;4725;48.384;8.984;2023-01-30T12:16:09;3.20;99.90
9371;DHT22;4725;48.384;8.984;2023-01-30T12:18:43;3.10;99.90
9371;DHT22;4725;48.384;8.984;2023-01-30T12:21:20;3.10;99.90
9371;DHT22;4725;48.384;8.984;2023-01-30T12:23:55;3.00;99.90
9371;DHT22;4725;48.384;8.984;2023-01-30T12:26:28;3.10;99.90
9371;DHT22;4725;48.384;8.984;2023-01-30T12:29:02;3.00;99.90
9371;DHT22;4725;48.384;8.984;2023-01-30T12:31:35;2.90;99.90
9371;DHT22;4725;48.384;8.984;2023-01-30T12:34:06;2.70;99.90
9371;DHT22;4725;48.384;8.984;2023-01-30T12:36:41;2.80;99.90
9371;DHT22;4725;48.384;8.984;2023-01-30T12:39:25;2.70;99.90
9371;DHT22;4725;48.384;8.984;2023-01-30T12:42:19;2.60;99.90
9371;DHT22;4725;48.384;8.984;2023-01-30T12:45:02;2.60;99.90
9371;DHT22;4725;48.384;8.984;2023-01-30T12:47:47;2.70;99.90
9371;DHT22;4725;48.384;8.984;2023-01-30T12:50:26;2.60;99.90
9371;DHT22;4725;48.384;8.984;2023-01-30T12:53:12;2.60;99.90
9371;DHT22;4725;48.384;8.984;2023-01-30T12:55:50;2.70;99.90
9371;DHT22;4725;48.384;8.984;2023-01-30T12:58:22;2.60;99.90
9371;DHT22;4725;48.384;8.984;2023-01-30T13:01:04;2.50;99.90
9371;DHT22;4725;48.384;8.984;2023-01-30T13:03:41;2.50;99.90
9371;DHT22;4725;48.384;8.984;2023-01-30T13:06:22;2.40;99.90
9371;DHT22;4725;48.384;8.984;2023-01-30T13:09:08;2.40;99.90
9371;DHT22;4725;48.384;8.984;2023-01-30T13:11:45;2.40;99.90
9371;DHT22;4725;48.384;8.984;2023-01-30T13:14:23;2.40;99.90
9371;DHT22;4725;48.384;8.984;2023-01-30T13:17:04;2.40;99.90
9371;DHT22;4725;48.384;8.984;2023-01-30T13:19:39;2.50;99.90
9371;DHT22;4725;48.384;8.984;2023-01-30T13:22:12;3.00;99.90
9371;DHT22;4725;48.384;8.984;2023-01-30T13:24:51;3.00;99.90
9371;DHT22;4725;48.384;8.984;2023-01-30T13:27:23;2.70;99.90
9371;DHT22;4725;48.384;8.984;2023-01-30T13:29:51;2.60;99.90
9371;DHT22;4725;48.384;8.984;2023-01-30T13:32:37;2.30;99.90
9371;DHT22;4725;48.384;8.984;2023-01-30T13:35:14;2.40;99.90
9371;DHT22;4725;48.384;8.984;2023-01-30T13:37:43;2.40;99.90
9371;DHT22;4725;48.384;8.984;2023-01-30T13:40:15;2.10;99.90
9371;DHT22;4725;48.384;8.984;2023-01-30T13:42:46;2.20;99.90
9371;DHT22;4725;48.384;8.984;2023-01-30T13:45:18;2.00;99.90
9371;DHT22;4725;48.384;8.984;2023-01-30T13:47:54;2.00;99.90
9371;DHT22;4725;48.384;8.984;2023-01-30T13:50:43;2.10;99.90
9371;DHT22;4725;48.384;8.984;2023-01-30T13:53:18;2.20;99.90
9371;DHT22;4725;48.384;8.984;2023-01-30T13:55:53;2.30;99.90
9371;DHT22;4725;48.384;8.984;2023-01-30T13:58:39;2.20;99.90
9371;DHT22;4725;48.384;8.984;2023-01-30T14:01:09;2.40;99.90
9371;DHT22;4725;48.384;8.984;2023-01-30T14:03:39;2.40;99.90
9371;DHT22;4725;48.384;8.984;2023-01-30T14:06:28;2.30;99.90
9371;DHT22;4725;48.384;8.984;2023-01-30T14:08:57;2.30;99.90
9371;DHT22;4725;48.384;8.984;2023-01-30T14:11:36;2.40;99.90
9371;DHT22;4725;48.384;8.984;2023-01-30T14:14:20;2.30;99.90
9371;DHT22;4725;48.384;8.984;2023-01-30T14:16:50;2.30;99.90
9371;DHT22;4725;48.384;8.984;2023-01-30T14:22:22;2.30;99.90
9371;DHT22;4725;48.384;8.984;2023-01-30T14:25:31;2.20;99.90
9371;DHT22;4725;48.384;8.984;2023-01-30T14:38:09;2.20;99.90
9371;DHT22;4725;48.384;8.984;2023-01-30T14:40:47;2.10;99.90
9371;DHT22;4725;48.384;8.984;2023-01-30T14:43:37;2.10;99.90
9371;DHT22;4725;48.384;8.984;2023-01-30T14:46:06;2.20;99.90
9371;DHT22;4725;48.384;8.984;2023-01-30T14:48:42;2.30;99.90
9371;DHT22;4725;48.384;8.984;2023-01-30T14:51:18;2.20;99.90
9371;DHT22;4725;48.384;8.984;2023-01-30T14:53:55;2.20;99.90
9371;DHT22;4725;48.384;8.984;2023-01-30T14:56:36;2.30;99.90
9371;DHT22;4725;48.384;8.984;2023-01-30T14:59:07;2.30;99.90
9371;DHT22;4725;48.384;8.984;2023-01-30T15:02:01;2.20;99.90
9371;DHT22;4725;48.384;8.984;2023-01-30T15:04:32;2.10;99.90
9371;DHT22;4725;48.384;8.984;2023-01-30T15:07:03;2.20;99.90
9371;DHT22;4725;48.384;8.984;2023-01-30T15:09:34;2.00;99.90
9371;DHT22;4725;48.384;8.984;2023-01-30T15:12:21;2.00;99.90
9371;DHT22;4725;48.384;8.984;2023-01-30T15:14:59;2.00;99.90
9371;DHT22;4725;48.384;8.984;2023-01-30T15:17:34;2.00;99.90
9371;DHT22;4725;48.384;8.984;2023-01-30T15:20:15;2.00;99.90
9371;DHT22;4725;48.384;8.984;2023-01-30T15:23:11;1.80;99.90
9371;DHT22;4725;48.384;8.984;2023-01-30T15:25:56;1.70;99.90
9371;DHT22;4725;48.384;8.984;2023-01-30T15:28:34;1.80;99.90
9371;DHT22;4725;48.384;8.984;2023-01-30T15:31:08;1.60;99.90
9371;DHT22;4725;48.384;8.984;2023-01-30T15:33:43;1.50;99.90
9371;DHT22;4725;48.384;8.984;2023-01-30T15:36:18;1.40;99.90
9371;DHT22;4725;48.384;8.984;2023-01-30T15:38:48;1.40;99.90
9371;DHT22;4725;48.384;8.984;2023-01-30T15:41:22;1.40;99.90
9371;DHT22;4725;48.384;8.984;2023-01-30T15:46:47;1.40;99.90
9371;DHT22;4725;48.384;8.984;2023-01-30T15:49:38;1.40;99.90
9371;DHT22;4725;48.384;8.984;2023-01-30T15:52:12;1.30;99.90
9371;DHT22;4725;48.384;8.984;2023-01-30T15:54:40;1.30;99.90
9371;DHT22;4725;48.384;8.984;2023-01-30T15:57:18;1.30;99.90
9371;DHT22;4725;48.384;8.984;2023-01-30T15:59:46;1.30;99.90
9371;DHT22;4725;48.384;8.984;2023-01-30T16:02:17;1.20;99.90
9371;DHT22;4725;48.384;8.984;2023-01-30T16:04:46;1.20;99.90
9371;DHT22;4725;48.384;8.984;2023-01-30T16:07:14;1.20;99.90
9371;DHT22;4725;48.384;8.984;2023-01-30T16:09:41;1.20;99.90
9371;DHT22;4725;48.384;8.984;2023-01-30T16:17:30;1.10;99.90
9371;DHT22;4725;48.384;8.984;2023-01-30T16:32:27;0.90;99.90
9371;DHT22;4725;48.384;8.984;2023-01-30T16:35:23;0.90;99.90
9371;DHT22;4725;48.384;8.984;2023-01-30T16:37:53;1.00;99.90
9371;DHT22;4725;48.384;8.984;2023-01-30T16:40:24;0.90;99.90
9371;DHT22;4725;48.384;8.984;2023-01-30T16:42:54;0.90;99.90
9371;DHT22;4725;48.384;8.984;2023-01-30T16:48:31;0.90;99.90
9371;DHT22;4725;48.384;8.984;2023-01-30T16:51:16;0.80;99.90
9371;DHT22;4725;48.384;8.984;2023-01-30T16:53:51;0.90;99.90
9371;DHT22;4725;48.384;8.984;2023-01-30T16:56:21;0.90;99.90
9371;DHT22;4725;48.384;8.984;2023-01-30T16:58:51;1.00;99.90
9371;DHT22;4725;48.384;8.984;2023-01-30T17:01:20;0.90;99.90
9371;DHT22;4725;48.384;8.984;2023-01-30T17:03:59;0.90;99.90
9371;DHT22;4725;48.384;8.984;2023-01-30T17:06:33;0.90;99.90
9371;DHT22;4725;48.384;8.984;2023-01-30T17:09:01;1.00;99.90
9371;DHT22;4725;48.384;8.984;2023-01-30T17:11:35;0.90;99.90
9371;DHT22;4725;48.384;8.984;2023-01-30T17:14:20;0.90;99.90
9371;DHT22;4725;48.384;8.984;2023-01-30T17:16:59;0.90;99.90
9371;DHT22;4725;48.384;8.984;2023-01-30T17:19:27;0.90;99.90
9371;DHT22;4725;48.384;8.984;2023-01-30T17:21:55;0.90;99.90
9371;DHT22;4725;48.384;8.984;2023-01-30T17:24:24;0.90;99.90
9371;DHT22;4725;48.384;8.984;2023-01-30T17:26:53;1.00;99.90
9371;DHT22;4725;48.384;8.984;2023-01-30T17:29:23;0.90;99.90
9371;DHT22;4725;48.384;8.984;2023-01-30T17:31:51;0.90;99.90
9371;DHT22;4725;48.384;8.984;2023-01-30T17:34:18;0.90;99.90
9371;DHT22;4725;48.384;8.984;2023-01-30T17:36:50;0.90;99.90
9371;DHT22;4725;48.384;8.984;2023-01-30T17:39:20;0.90;99.90
9371;DHT22;4725;48.384;8.984;2023-01-30T17:41:48;1.00;99.90
9371;DHT22;4725;48.384;8.984;2023-01-30T17:44:15;1.00;99.90
9371;DHT22;4725;48.384;8.984;2023-01-30T17:46:43;1.00;99.90
9371;DHT22;4725;48.384;8.984;2023-01-30T17:49:15;1.00;99.90
9371;DHT22;4725;48.384;8.984;2023-01-30T17:51:44;1.10;99.90
9371;DHT22;4725;48.384;8.984;2023-01-30T17:54:13;1.10;99.90
9371;DHT22;4725;48.384;8.984;2023-01-30T17:56:42;1.10;99.90
9371;DHT22;4725;48.384;8.984;2023-01-30T17:59:11;1.20;99.90
9371;DHT22;4725;48.384;8.984;2023-01-30T18:01:39;1.10;99.90
9371;DHT22;4725;48.384;8.984;2023-01-30T18:04:06;1.10;99.90
9371;DHT22;4725;48.384;8.984;2023-01-30T18:06:34;1.10;99.90
9371;DHT22;4725;48.384;8.984;2023-01-30T18:09:02;1.00;99.90
9371;DHT22;4725;48.384;8.984;2023-01-30T18:11:31;1.10;99.90
9371;DHT22;4725;48.384;8.984;2023-01-30T18:13:58;1.10;99.90
9371;DHT22;4725;48.384;8.984;2023-01-30T18:16:27;1.00;99.90
9371;DHT22;4725;48.384;8.984;2023-01-30T18:18:55;1.00;99.90
9371;DHT22;4725;48.384;8.984;2023-01-30T18:21:23;1.00;99.90
9371;DHT22;4725;48.384;8.984;2023-01-30T18:23:50;1.00;99.90
9371;DHT22;4725;48.384;8.984;2023-01-30T18:26:17;1.10;99.90
9371;DHT22;4725;48.384;8.984;2023-01-30T18:28:46;1.00;99.90
9371;DHT22;4725;48.384;8.984;2023-01-30T18:31:14;1.10;99.90
9371;DHT22;4725;48.384;8.984;2023-01-30T18:33:41;1.10;99.90
9371;DHT22;4725;48.384;8.984;2023-01-30T18:36:11;1.10;99.90
9371;DHT22;4725;48.384;8.984;2023-01-30T18:38:38;1.10;99.90
9371;DHT22;4725;48.384;8.984;2023-01-30T18:41:09;3.60;99.90
9371;DHT22;4725;48.384;8.984;2023-01-30T18:43:37;1.00;99.90
9371;DHT22;4725;48.384;8.984;2023-01-30T18:46:07;1.00;99.90
9371;DHT22;4725;48.384;8.984;2023-01-30T18:48:34;1.10;99.90
9371;DHT22;4725;48.384;8.984;2023-01-30T18:51:05;1.10;99.90
9371;DHT22;4725;48.384;8.984;2023-01-30T18:53:33;1.10;99.90
9371;DHT22;4725;48.384;8.984;2023-01-30T18:56:00;1.10;99.90
9371;DHT22;4725;48.384;8.984;2023-01-30T18:58:28;1.00;99.90
9371;DHT22;4725;48.384;8.984;2023-01-30T19:00:55;1.00;99.90
9371;DHT22;4725;48.384;8.984;2023-01-30T19:03:25;0.90;99.90
9371;DHT22;4725;48.384;8.984;2023-01-30T19:05:52;0.90;99.90
9371;DHT22;4725;48.384;8.984;2023-01-30T19:08:19;0.90;99.90
9371;DHT22;4725;48.384;8.984;2023-01-30T19:10:47;0.90;99.90
9371;DHT22;4725;48.384;8.984;2023-01-30T19:13:14;0.90;99.90